Flight Track Log - Related Links

Times and Time Zones

All times are in EDT time to prevent confusion due to time zone crossing. See the N960DL flight status page for this flight to view local times or setup timezone preferences in your user account.

Time Position Orientation Groundspeed Altitude Reporting Facility
EDT Latitude Longitude Course Direction KTS MPH feet Rate Location/Type
Thu 12:45:01 PM 33.6500 -84.4667 North 162 186 2,300  Level Atlanta TRACON
Thu 12:45:55 PM 33.6667 -84.5167 292° West 240 276 3,900 2,421 Climbing Atlanta TRACON
Thu 12:46:55 PM 33.7167 -84.5833 312° West 266 306 6,900 2,619 Climbing Atlanta TRACON
Thu 12:48:00 PM 33.9771 -84.2667 North  Level FlightAware Approximate
Thu 12:48:01 PM 33.8000 -84.5833 360° North 292 336 9,400  Level Atlanta TRACON
Thu 12:49:00 PM 34.1116 -84.2667 North  Level FlightAware Approximate
Thu 12:49:41 PM 33.9083 -84.4417 47° Northeast 347 399 11,600  Level Atlanta Center
Thu 12:50:00 PM 34.2460 -84.2667 North  Level FlightAware Approximate
Thu 12:50:41 PM 34.0047 -84.3819 27° Northeast 379 436 13,800  Level Atlanta Center
Thu 12:51:41 PM 34.0986 -84.3475 17° North 374 430 15,700 2,100 Climbing Atlanta Center
Thu 12:52:41 PM 34.2281 -84.3050 15° North 425 489 18,000 1,800 Climbing Atlanta Center
Thu 12:53:41 PM 34.3347 -84.2728 14° North 431 496 19,300 1,600 Climbing Atlanta Center
Thu 12:54:41 PM 34.4600 -84.2428 11° North 449 517 21,200 1,900 Climbing Atlanta Center
Thu 12:55:41 PM 34.5831 -84.2128 11° North 449 517 23,100 1,800 Climbing Atlanta Center
Thu 12:56:41 PM 34.7208 -84.1828 10° North 449 517 24,800 2,000 Climbing Atlanta Center
Thu 12:57:41 PM 34.8461 -84.1528 11° North 449 517 27,100 1,900 Climbing Atlanta Center
Thu 12:58:41 PM 34.9733 -84.1250 10° North 449 517 28,600 1,500 Climbing Atlanta Center
Thu 12:59:41 PM 35.0861 -84.0972 11° North 449 517 30,100 1,400 Climbing Atlanta Center
Thu 01:00:41 PM 35.2072 -84.0667 12° North 449 517 31,400 1,100 Climbing Atlanta Center
Thu 01:01:41 PM 35.3281 -84.0389 11° North 449 517 32,300 800 Climbing Atlanta Center
Thu 01:02:41 PM 35.4492 -84.0081 12° North 449 517 33,000 350 Climbing Atlanta Center
Thu 01:03:41 PM 35.5742 -83.9775 11° North 449 517 33,000  Level Atlanta Center
Thu 01:04:41 PM 35.6994 -83.9467 11° North 449 517 33,000  Level Atlanta Center
Thu 01:05:41 PM 35.8247 -83.9158 11° North 449 517 33,000  Level Atlanta Center
Thu 01:06:41 PM 35.9497 -83.8669 18° North 454 522 33,000  Level Atlanta Center
Thu 01:07:41 PM 36.0706 -83.7894 27° Northeast 463 533 33,000  Level Atlanta Center
Thu 01:09:36 PM 36.3128 -83.6325 28° Northeast 491 565 33,000  Level Indianapolis Center
Thu 01:10:38 PM 36.4328 -83.5556 27° Northeast 487 560 33,000  Level Indianapolis Center
Thu 01:11:41 PM 36.5569 -83.4781 27° Northeast 497 572 33,000  Level Indianapolis Center
Thu 01:12:43 PM 36.6742 -83.3897 31° Northeast 495 570 33,000  Level Indianapolis Center
Thu 01:13:45 PM 36.7889 -83.2817 37° Northeast 510 587 33,000  Level Indianapolis Center
Thu 01:14:47 PM 36.9244 -83.1556 37° Northeast 516 594 33,000  Level Indianapolis Center
Thu 01:15:49 PM 37.0425 -83.0453 37° Northeast 519 597 33,000  Level Indianapolis Center
Thu 01:16:51 PM 37.1600 -82.9342 37° Northeast 519 597 33,000  Level Indianapolis Center
Thu 01:17:53 PM 37.2800 -82.8386 32° Northeast 505 581 33,000  Level Indianapolis Center
Thu 01:18:55 PM 37.4022 -82.7539 29° Northeast 500 575 33,000  Level Indianapolis Center
Thu 01:19:57 PM 37.5200 -82.6617 32° Northeast 497 572 33,000  Level Indianapolis Center
Thu 01:20:59 PM 37.6381 -82.5675 32° Northeast 498 573 33,000  Level Indianapolis Center
Thu 01:22:01 PM 37.7564 -82.4756 32° Northeast 496 571 33,000  Level Indianapolis Center
Thu 01:23:03 PM 37.8939 -82.3717 31° Northeast 490 564 33,000  Level Indianapolis Center
Thu 01:24:04 PM 37.9992 -82.2550 41° Northeast 504 580 33,000  Level Indianapolis Center
Thu 01:25:06 PM 38.0825 -82.1367 48° Northeast 503 579 33,000  Level Indianapolis Center
Thu 01:26:08 PM 38.1997 -81.9783 47° Northeast 508 585 33,000  Level Indianapolis Center
Thu 01:27:10 PM 38.2958 -81.8456 47° Northeast 510 587 33,000  Level Indianapolis Center
Thu 01:28:12 PM 38.3919 -81.7119 47° Northeast 512 589 33,000  Level Indianapolis Center
Thu 01:29:14 PM 38.4850 -81.5769 49° Northeast 512 589 33,000  Level Indianapolis Center
Thu 01:30:16 PM 38.5778 -81.4425 49° Northeast 512 589 33,000  Level Indianapolis Center
Thu 01:31:18 PM 38.6889 -81.2847 48° Northeast 509 586 33,000  Level Indianapolis Center
Thu 01:32:20 PM 38.7828 -81.1492 48° Northeast 512 589 33,000  Level Indianapolis Center
Thu 01:33:22 PM 38.8783 -81.0136 48° Northeast 514 592 33,000  Level Indianapolis Center
Thu 01:34:24 PM 38.9767 -80.8772 47° Northeast 520 598 33,000  Level Indianapolis Center
Thu 01:35:26 PM 39.0731 -80.7394 48° Northeast 518 596 33,000  Level Indianapolis Center
Thu 01:36:27 PM 39.1689 -80.6014 48° Northeast 517 595 33,000  Level Indianapolis Center
Thu 01:37:29 PM 39.2847 -80.4350 48° Northeast 518 596 33,000  Level Indianapolis Center
Thu 01:38:31 PM 39.3803 -80.2975 48° Northeast 515 593 33,000  Level Indianapolis Center
Thu 01:39:15 PM 39.4536 -80.1958 47° Northeast 514 592 33,000  Level Cleveland Center
Thu 01:40:15 PM 39.5469 -80.0608 48° Northeast 514 592 33,000  Level Cleveland Center
Thu 01:41:15 PM 39.6400 -79.9225 49° Northeast 514 592 33,000  Level Cleveland Center
Thu 01:42:15 PM 39.7247 -79.7978 49° Northeast 514 592 33,000 200 Level Cleveland Center
Thu 01:43:15 PM 39.8194 -79.6586 48° Northeast 514 592 33,400 600 Climbing Cleveland Center
Thu 01:44:15 PM 39.9164 -79.5194 48° Northeast 514 592 34,200 600 Climbing Cleveland Center
Thu 01:45:15 PM 40.0067 -79.3797 50° Northeast 514 592 34,600 350 Climbing Cleveland Center
Thu 01:46:15 PM 40.0989 -79.2397 49° Northeast 514 592 34,900 200 Climbing Cleveland Center
Thu 01:47:15 PM 40.1931 -79.0964 49° Northeast 514 592 35,000 50 Climbing Cleveland Center
Thu 01:48:15 PM 40.2911 -78.9553 48° Northeast 514 592 35,000  Level Cleveland Center
Thu 01:49:15 PM 40.3950 -78.7947 50° Northeast 521 600 35,000  Level Cleveland Center
Thu 01:50:15 PM 40.4886 -78.6531 49° Northeast 521 600 35,000  Level Cleveland Center
Thu 01:51:15 PM 40.5861 -78.5081 48° Northeast 516 594 35,000  Level Cleveland Center
Thu 01:52:51 PM 40.7383 -78.2736 49° Northeast 587 676 35,000  Level New York Center
Thu 01:53:51 PM 40.8328 -78.1275 49° Northeast 545 627 35,000  Level New York Center
Thu 01:54:51 PM 40.9253 -77.9781 51° Northeast 524 603 35,000  Level New York Center
Thu 01:55:52 PM 41.0000 -77.8125 59° Northeast 519 597 35,000  Level New York Center
Thu 01:56:52 PM 41.0764 -77.6444 59° Northeast 514 592 35,000  Level New York Center
Thu 01:57:53 PM 41.1486 -77.4753 60° Northeast 519 597 35,000  Level New York Center
Thu 01:58:51 PM 41.2225 -77.3086 59° Northeast 524 603 35,000  Level New York Center
Thu 01:59:51 PM 41.2942 -77.1417 60° Northeast 524 603 35,000  Level New York Center
Thu 02:00:52 PM 41.3700 -76.9719 59° Northeast 524 603 35,000  Level New York Center
Thu 02:01:52 PM 41.4433 -76.8014 60° Northeast 529 609 35,000  Level New York Center
Thu 02:02:53 PM 41.5164 -76.6306 60° Northeast 523 602 35,000  Level New York Center
Thu 02:05:16 PM 41.6936 -76.2103 60° Northeast 530 610 35,000  Level Boston Center
Thu 02:06:16 PM 41.7681 -76.0367 60° Northeast 530 610 35,000  Level Boston Center
Thu 02:07:16 PM 41.8333 -75.8814 61° Northeast 530 610 35,000  Level Boston Center
Thu 02:08:16 PM 41.9053 -75.7067 61° Northeast 525 604 35,000  Level Boston Center
Thu 02:09:16 PM 41.9747 -75.5344 61° Northeast 525 604 35,000  Level Boston Center
Thu 02:10:16 PM 42.0481 -75.3592 61° Northeast 525 604 35,000  Level Boston Center
Thu 02:11:16 PM 42.1233 -75.1889 59° Northeast 525 604 35,000 -450 Level Boston Center
Thu 02:12:16 PM 42.2047 -75.0075 59° Northeast 519 597 34,100 -1,000 Descending Boston Center
Thu 02:13:16 PM 42.2833 -74.8422 57° Northeast 519 597 33,000 -550 Descending Boston Center
Thu 02:14:16 PM 42.3617 -74.6739 58° Northeast 519 597 33,000  Level Boston Center
Thu 02:15:16 PM 42.4381 -74.4994 59° Northeast 526 605 33,000  Level Boston Center
Thu 02:16:16 PM 42.5161 -74.3303 58° Northeast 526 605 33,000  Level Boston Center
Thu 02:17:16 PM 42.5792 -74.1517 64° Northeast 520 598 33,000  Level Boston Center
Thu 02:18:16 PM 42.6319 -73.9725 68° East 515 593 33,000  Level Boston Center
Thu 02:19:16 PM 42.6906 -73.7903 66° East 515 593 33,000  Level Boston Center
Thu 02:20:16 PM 42.7467 -73.6078 67° East 515 593 33,000  Level Boston Center
Thu 02:21:16 PM 42.8025 -73.4278 67° East 515 593 33,000  Level Boston Center
Thu 02:22:16 PM 42.8561 -73.2472 68° East 515 593 33,000  Level Boston Center
Thu 02:23:16 PM 42.9133 -73.0667 67° East 515 593 33,000  Level Boston Center
Thu 02:24:16 PM 42.9558 -72.9053 70° East 510 587 33,000  Level Boston Center
Thu 02:25:16 PM 43.0106 -72.7211 68° East 510 587 33,000 -250 Level Boston Center
Thu 02:26:16 PM 43.0756 -72.5367 64° Northeast 518 596 32,500 -2,000 Descending Boston Center
Thu 02:27:16 PM 43.1214 -72.3633 70° East 511 588 29,000 -3,450 Descending Boston Center
Thu 02:28:16 PM 43.1733 -72.1753 69° East 511 588 25,600 -3,050 Descending Boston Center
Thu 02:29:16 PM 43.2247 -71.9900 69° East 516 594 22,900 -2,650 Descending Boston Center
Thu 02:30:16 PM 43.2761 -71.8100 69° East 506 582 20,300 -2,750 Descending Boston Center
Thu 02:31:16 PM 43.3269 -71.6267 69° East 478 550 17,400 -2,600 Descending Boston Center
Thu 02:32:16 PM 43.3736 -71.4661 68° East 465 535 15,100 -2,400 Descending Boston Center
Thu 02:33:16 PM 43.4181 -71.3111 68° East 443 510 12,600 -2,000 Descending Boston Center
Thu 02:34:16 PM 43.4522 -71.1817 70° East 417 480 11,100 -800 Descending Boston Center
Thu 02:35:16 PM 43.4922 -71.0319 70° East 382 440 11,000 -250 Descending Boston Center
Thu 02:36:16 PM 43.5178 -70.9169 73° East 369 425 10,600 -750 Descending Boston Center
Thu 02:37:16 PM 43.5472 -70.7844 73° East 334 384 9,500 -1,250 Descending Boston Center
Thu 02:38:16 PM 43.5725 -70.6747 72° East 313 360 8,100 -1,300 Descending Boston Center
Thu 02:39:16 PM 43.5728 -70.5631 90° East 289 333 6,900 -1,200 Descending Boston Center
Thu 02:40:16 PM 43.5669 -70.4572 94° East 277 319 5,700 -1,350 Descending Boston Center
Thu 02:41:16 PM 43.5631 -70.3542 93° East 272 313 4,200 -1,350 Descending Boston Center
Thu 02:42:16 PM 43.5569 -70.2542 95° East 272 313 3,000 -600 Descending Boston Center
Thu 02:43:16 PM 43.5556 -70.1739 91° East 241 277 3,000 -300 Level Boston Center
Thu 02:44:16 PM 43.6089 -70.1433 23° Northeast 182 209 2,400 -650 Descending Boston Center
Thu 02:45:16 PM 43.6472 -70.1792 326° Northwest 164 189 1,700 -700 Descending Boston Center

Login

Don't have an account? Register now (free) for customized features, flight alerts, and more!